KCHA/CHA METAR and TAF weather

Enter ICAO airport designator
Station Type Date Time Source
KCHA METAR 2022/11/30 15:53 UTC NOAA

KCHA 301553Z 32014G20KT 10SM FEW027 SCT033 11/04 A3017 RMK AO2 PRESRR SLP214 T01110044


Station Type Date Time Source
KCHA Decoded METAR 2022/11/30 15:53 UTC NOAA

LOVELL FIELD, TN, United States (KCHA) 35-02N 085-12W 210M
Nov 30, 2022 - 10:53 AM EST / 2022.11.30 1553 UTC
Wind: from the NW (320 degrees) at 16 MPH (14 KT) gusting to 23 MPH (20 KT):0
Visibility: 10 mile(s):0
Sky conditions: partly cloudy
Temperature: 52.0 F (11.1 C)
Dew Point: 39.9 F (4.4 C)
Relative Humidity: 63%
Pressure (altimeter): 30.17 in. Hg (1021 hPa)
Pressure tendency: rising rapidly
ob: KCHA 301553Z 32014G20KT 10SM FEW027 SCT033 11/04 A3017 RMK AO2 PRESRR SLP214 T01110044
cycle: 16

Station Type Date Time Source
KCHA TAF 2022/11/30 12:36 UTC NOAA

TAF KCHA 301134Z 3012/0112 VRB04KT P6SM VCSH FEW010 SCT040 BKN050
FM301400 34010G19KT P6SM SCT015 SCT025
FM301700 34011KT P6SM SKC

Example: see airport list